sensor_id;sensor_type;location;lat;lon;timestamp;P1;durP1;ratioP1;P2;durP2;ratioP2
70406;SDS011;57821;52.202;0.154;2022-07-09T00:01:11;5.32;;;2.20;;
70406;SDS011;57821;52.202;0.154;2022-07-09T00:03:37;7.07;;;2.90;;
70406;SDS011;57821;52.202;0.154;2022-07-09T00:06:04;5.20;;;2.10;;
70406;SDS011;57821;52.202;0.154;2022-07-09T00:08:31;4.80;;;2.20;;
70406;SDS011;57821;52.202;0.154;2022-07-09T00:10:58;6.03;;;1.92;;
70406;SDS011;57821;52.202;0.154;2022-07-09T00:13:25;4.93;;;2.08;;
70406;SDS011;57821;52.202;0.154;2022-07-09T00:15:51;5.90;;;1.80;;
70406;SDS011;57821;52.202;0.154;2022-07-09T00:18:18;4.35;;;1.60;;
70406;SDS011;57821;52.202;0.154;2022-07-09T00:20:45;6.80;;;3.17;;
70406;SDS011;57821;52.202;0.154;2022-07-09T00:23:11;4.97;;;1.98;;
70406;SDS011;57821;52.202;0.154;2022-07-09T00:25:38;4.38;;;1.50;;
70406;SDS011;57821;52.202;0.154;2022-07-09T00:28:05;6.10;;;1.80;;
70406;SDS011;57821;52.202;0.154;2022-07-09T00:30:31;4.68;;;1.88;;
70406;SDS011;57821;52.202;0.154;2022-07-09T00:32:58;4.55;;;1.90;;
70406;SDS011;57821;52.202;0.154;2022-07-09T00:35:24;3.80;;;1.60;;
70406;SDS011;57821;52.202;0.154;2022-07-09T00:37:51;4.70;;;1.60;;
70406;SDS011;57821;52.202;0.154;2022-07-09T00:40:17;4.05;;;1.67;;
70406;SDS011;57821;52.202;0.154;2022-07-09T00:42:44;4.15;;;1.70;;
70406;SDS011;57821;52.202;0.154;2022-07-09T00:45:10;3.95;;;1.55;;
70406;SDS011;57821;52.202;0.154;2022-07-09T00:47:37;3.90;;;1.60;;
70406;SDS011;57821;52.202;0.154;2022-07-09T00:50:04;4.97;;;1.40;;
70406;SDS011;57821;52.202;0.154;2022-07-09T00:52:31;6.38;;;1.50;;
70406;SDS011;57821;52.202;0.154;2022-07-09T00:55:00;3.80;;;1.60;;
70406;SDS011;57821;52.202;0.154;2022-07-09T00:57:27;3.70;;;1.38;;
70406;SDS011;57821;52.202;0.154;2022-07-09T00:59:55;7.22;;;1.60;;
70406;SDS011;57821;52.202;0.154;2022-07-09T01:02:23;3.97;;;1.30;;
70406;SDS011;57821;52.202;0.154;2022-07-09T01:04:50;4.68;;;1.40;;
70406;SDS011;57821;52.202;0.154;2022-07-09T01:07:17;4.00;;;1.30;;
70406;SDS011;57821;52.202;0.154;2022-07-09T01:09:44;5.53;;;1.48;;
70406;SDS011;57821;52.202;0.154;2022-07-09T01:12:11;4.55;;;1.55;;
70406;SDS011;57821;52.202;0.154;2022-07-09T01:14:37;4.45;;;1.50;;
70406;SDS011;57821;52.202;0.154;2022-07-09T01:17:06;4.20;;;1.58;;
70406;SDS011;57821;52.202;0.154;2022-07-09T01:19:33;4.55;;;1.60;;
70406;SDS011;57821;52.202;0.154;2022-07-09T01:22:00;4.55;;;1.65;;
70406;SDS011;57821;52.202;0.154;2022-07-09T01:24:32;3.75;;;1.35;;
70406;SDS011;57821;52.202;0.154;2022-07-09T01:27:00;4.53;;;1.60;;
70406;SDS011;57821;52.202;0.154;2022-07-09T01:29:28;4.97;;;1.58;;
70406;SDS011;57821;52.202;0.154;2022-07-09T01:31:54;5.93;;;1.50;;
70406;SDS011;57821;52.202;0.154;2022-07-09T01:34:21;4.35;;;1.60;;
70406;SDS011;57821;52.202;0.154;2022-07-09T01:36:47;8.32;;;2.00;;
70406;SDS011;57821;52.202;0.154;2022-07-09T01:39:14;5.22;;;1.95;;
70406;SDS011;57821;52.202;0.154;2022-07-09T01:41:41;5.38;;;1.60;;
70406;SDS011;57821;52.202;0.154;2022-07-09T01:44:07;5.68;;;1.60;;
70406;SDS011;57821;52.202;0.154;2022-07-09T01:46:34;5.10;;;2.00;;
70406;SDS011;57821;52.202;0.154;2022-07-09T01:49:01;4.30;;;2.00;;
70406;SDS011;57821;52.202;0.154;2022-07-09T01:51:28;4.85;;;1.60;;
70406;SDS011;57821;52.202;0.154;2022-07-09T01:53:55;4.13;;;1.50;;
70406;SDS011;57821;52.202;0.154;2022-07-09T01:56:21;4.90;;;1.90;;
70406;SDS011;57821;52.202;0.154;2022-07-09T01:58:48;3.85;;;1.40;;
70406;SDS011;57821;52.202;0.154;2022-07-09T02:01:14;5.78;;;1.90;;
70406;SDS011;57821;52.202;0.154;2022-07-09T02:03:41;5.75;;;1.85;;
70406;SDS011;57821;52.202;0.154;2022-07-09T02:06:08;3.83;;;1.70;;
70406;SDS011;57821;52.202;0.154;2022-07-09T02:08:34;5.03;;;1.80;;
70406;SDS011;57821;52.202;0.154;2022-07-09T02:11:02;3.72;;;1.60;;
70406;SDS011;57821;52.202;0.154;2022-07-09T02:13:28;3.60;;;1.60;;
70406;SDS011;57821;52.202;0.154;2022-07-09T02:15:55;5.00;;;1.40;;
70406;SDS011;57821;52.202;0.154;2022-07-09T02:18:22;5.80;;;1.65;;
70406;SDS011;57821;52.202;0.154;2022-07-09T02:20:48;5.15;;;1.70;;
70406;SDS011;57821;52.202;0.154;2022-07-09T02:23:15;4.07;;;1.50;;
70406;SDS011;57821;52.202;0.154;2022-07-09T02:25:41;3.53;;;1.45;;
70406;SDS011;57821;52.202;0.154;2022-07-09T02:28:08;3.55;;;1.45;;
70406;SDS011;57821;52.202;0.154;2022-07-09T02:30:35;4.25;;;1.75;;
70406;SDS011;57821;52.202;0.154;2022-07-09T02:33:01;3.47;;;1.40;;
70406;SDS011;57821;52.202;0.154;2022-07-09T02:35:28;5.88;;;1.50;;
70406;SDS011;57821;52.202;0.154;2022-07-09T02:37:54;3.90;;;1.27;;
70406;SDS011;57821;52.202;0.154;2022-07-09T02:40:21;3.80;;;1.55;;
70406;SDS011;57821;52.202;0.154;2022-07-09T02:42:48;3.60;;;1.50;;
70406;SDS011;57821;52.202;0.154;2022-07-09T02:45:14;4.50;;;1.73;;
70406;SDS011;57821;52.202;0.154;2022-07-09T02:47:41;5.78;;;1.65;;
70406;SDS011;57821;52.202;0.154;2022-07-09T02:50:08;5.18;;;1.95;;
70406;SDS011;57821;52.202;0.154;2022-07-09T02:52:35;7.43;;;1.80;;
70406;SDS011;57821;52.202;0.154;2022-07-09T02:55:01;4.70;;;1.80;;
70406;SDS011;57821;52.202;0.154;2022-07-09T02:57:28;6.72;;;1.75;;
70406;SDS011;57821;52.202;0.154;2022-07-09T02:59:54;5.90;;;2.00;;
70406;SDS011;57821;52.202;0.154;2022-07-09T03:02:21;4.78;;;1.95;;
70406;SDS011;57821;52.202;0.154;2022-07-09T03:04:47;4.47;;;1.73;;
70406;SDS011;57821;52.202;0.154;2022-07-09T03:07:14;5.35;;;1.90;;
70406;SDS011;57821;52.202;0.154;2022-07-09T03:09:41;4.35;;;2.15;;
70406;SDS011;57821;52.202;0.154;2022-07-09T03:12:07;5.65;;;1.83;;
70406;SDS011;57821;52.202;0.154;2022-07-09T03:14:34;4.28;;;2.00;;
70406;SDS011;57821;52.202;0.154;2022-07-09T03:17:01;3.78;;;1.45;;
70406;SDS011;57821;52.202;0.154;2022-07-09T03:19:27;6.07;;;2.15;;
70406;SDS011;57821;52.202;0.154;2022-07-09T03:21:54;4.35;;;1.98;;
70406;SDS011;57821;52.202;0.154;2022-07-09T03:24:20;4.40;;;1.98;;
70406;SDS011;57821;52.202;0.154;2022-07-09T03:26:47;4.15;;;1.65;;
70406;SDS011;57821;52.202;0.154;2022-07-09T03:29:14;4.85;;;1.95;;
70406;SDS011;57821;52.202;0.154;2022-07-09T03:31:40;4.70;;;2.00;;
70406;SDS011;57821;52.202;0.154;2022-07-09T03:34:07;5.90;;;2.40;;
70406;SDS011;57821;52.202;0.154;2022-07-09T03:36:33;4.43;;;2.00;;
70406;SDS011;57821;52.202;0.154;2022-07-09T03:39:00;7.78;;;2.03;;
70406;SDS011;57821;52.202;0.154;2022-07-09T03:41:26;5.85;;;2.53;;
70406;SDS011;57821;52.202;0.154;2022-07-09T03:43:53;5.07;;;2.08;;
70406;SDS011;57821;52.202;0.154;2022-07-09T03:46:20;5.75;;;2.20;;
70406;SDS011;57821;52.202;0.154;2022-07-09T03:48:46;7.05;;;2.50;;
70406;SDS011;57821;52.202;0.154;2022-07-09T03:51:13;5.20;;;2.30;;
70406;SDS011;57821;52.202;0.154;2022-07-09T03:53:39;6.22;;;2.50;;
70406;SDS011;57821;52.202;0.154;2022-07-09T03:56:06;4.88;;;2.28;;
70406;SDS011;57821;52.202;0.154;2022-07-09T03:58:33;5.55;;;2.38;;
70406;SDS011;57821;52.202;0.154;2022-07-09T04:01:00;6.95;;;2.70;;
70406;SDS011;57821;52.202;0.154;2022-07-09T04:03:27;6.80;;;2.80;;
70406;SDS011;57821;52.202;0.154;2022-07-09T04:05:53;5.47;;;2.47;;
70406;SDS011;57821;52.202;0.154;2022-07-09T04:08:20;6.60;;;2.38;;
70406;SDS011;57821;52.202;0.154;2022-07-09T04:10:46;4.68;;;2.47;;
70406;SDS011;57821;52.202;0.154;2022-07-09T04:13:13;5.97;;;2.50;;
70406;SDS011;57821;52.202;0.154;2022-07-09T04:15:40;7.28;;;2.42;;
70406;SDS011;57821;52.202;0.154;2022-07-09T04:18:06;6.18;;;2.85;;
70406;SDS011;57821;52.202;0.154;2022-07-09T04:20:33;8.50;;;2.55;;
70406;SDS011;57821;52.202;0.154;2022-07-09T04:23:00;7.18;;;2.70;;
70406;SDS011;57821;52.202;0.154;2022-07-09T04:25:26;5.32;;;2.50;;
70406;SDS011;57821;52.202;0.154;2022-07-09T04:27:53;4.78;;;2.38;;
70406;SDS011;57821;52.202;0.154;2022-07-09T04:30:19;6.32;;;3.75;;
70406;SDS011;57821;52.202;0.154;2022-07-09T04:32:46;5.68;;;2.55;;
70406;SDS011;57821;52.202;0.154;2022-07-09T04:35:13;5.45;;;2.75;;
70406;SDS011;57821;52.202;0.154;2022-07-09T04:37:39;7.00;;;2.80;;
70406;SDS011;57821;52.202;0.154;2022-07-09T04:40:06;5.68;;;2.70;;
70406;SDS011;57821;52.202;0.154;2022-07-09T04:42:33;5.85;;;3.05;;
70406;SDS011;57821;52.202;0.154;2022-07-09T04:44:59;5.25;;;3.03;;
70406;SDS011;57821;52.202;0.154;2022-07-09T04:47:26;8.73;;;2.53;;
70406;SDS011;57821;52.202;0.154;2022-07-09T04:49:53;6.65;;;3.08;;
70406;SDS011;57821;52.202;0.154;2022-07-09T04:52:19;7.38;;;3.13;;
70406;SDS011;57821;52.202;0.154;2022-07-09T04:54:46;5.53;;;2.67;;
70406;SDS011;57821;52.202;0.154;2022-07-09T04:57:13;5.28;;;2.90;;
70406;SDS011;57821;52.202;0.154;2022-07-09T04:59:40;6.60;;;3.22;;
70406;SDS011;57821;52.202;0.154;2022-07-09T05:02:06;5.80;;;2.58;;
70406;SDS011;57821;52.202;0.154;2022-07-09T05:04:33;8.15;;;3.25;;
70406;SDS011;57821;52.202;0.154;2022-07-09T05:06:59;7.13;;;3.40;;
70406;SDS011;57821;52.202;0.154;2022-07-09T05:09:26;6.60;;;3.33;;
70406;SDS011;57821;52.202;0.154;2022-07-09T05:11:53;7.45;;;3.30;;
70406;SDS011;57821;52.202;0.154;2022-07-09T05:14:19;5.72;;;3.05;;
70406;SDS011;57821;52.202;0.154;2022-07-09T05:16:46;7.25;;;3.40;;
70406;SDS011;57821;52.202;0.154;2022-07-09T05:19:13;5.75;;;3.40;;
70406;SDS011;57821;52.202;0.154;2022-07-09T05:21:40;6.03;;;3.10;;
70406;SDS011;57821;52.202;0.154;2022-07-09T05:24:07;4.97;;;2.63;;
70406;SDS011;57821;52.202;0.154;2022-07-09T05:26:34;5.65;;;2.90;;
70406;SDS011;57821;52.202;0.154;2022-07-09T05:29:02;5.97;;;3.10;;
70406;SDS011;57821;52.202;0.154;2022-07-09T05:31:29;5.63;;;2.80;;
70406;SDS011;57821;52.202;0.154;2022-07-09T05:34:00;7.63;;;2.85;;
70406;SDS011;57821;52.202;0.154;2022-07-09T05:36:27;4.78;;;2.38;;
70406;SDS011;57821;52.202;0.154;2022-07-09T05:38:55;9.32;;;2.88;;
70406;SDS011;57821;52.202;0.154;2022-07-09T05:41:22;6.10;;;2.13;;
70406;SDS011;57821;52.202;0.154;2022-07-09T05:43:48;3.97;;;1.95;;
70406;SDS011;57821;52.202;0.154;2022-07-09T05:46:15;5.82;;;2.20;;
70406;SDS011;57821;52.202;0.154;2022-07-09T05:48:42;5.97;;;2.45;;
70406;SDS011;57821;52.202;0.154;2022-07-09T05:51:08;6.13;;;2.60;;
70406;SDS011;57821;52.202;0.154;2022-07-09T05:53:35;6.25;;;2.78;;
70406;SDS011;57821;52.202;0.154;2022-07-09T05:56:01;6.05;;;2.78;;
70406;SDS011;57821;52.202;0.154;2022-07-09T05:58:28;5.57;;;2.80;;
70406;SDS011;57821;52.202;0.154;2022-07-09T06:00:55;5.53;;;2.67;;
70406;SDS011;57821;52.202;0.154;2022-07-09T06:03:21;5.30;;;2.80;;
70406;SDS011;57821;52.202;0.154;2022-07-09T06:05:48;4.88;;;2.13;;
70406;SDS011;57821;52.202;0.154;2022-07-09T06:08:14;5.28;;;2.40;;
70406;SDS011;57821;52.202;0.154;2022-07-09T06:10:41;5.55;;;2.13;;
70406;SDS011;57821;52.202;0.154;2022-07-09T06:13:08;7.80;;;2.20;;
70406;SDS011;57821;52.202;0.154;2022-07-09T06:15:34;4.90;;;2.50;;
70406;SDS011;57821;52.202;0.154;2022-07-09T06:18:01;6.25;;;2.45;;
70406;SDS011;57821;52.202;0.154;2022-07-09T06:20:28;8.35;;;2.75;;
70406;SDS011;57821;52.202;0.154;2022-07-09T06:22:54;5.30;;;2.13;;
70406;SDS011;57821;52.202;0.154;2022-07-09T06:25:21;4.97;;;2.20;;
70406;SDS011;57821;52.202;0.154;2022-07-09T06:27:47;6.13;;;2.03;;
70406;SDS011;57821;52.202;0.154;2022-07-09T06:30:14;5.85;;;2.25;;
70406;SDS011;57821;52.202;0.154;2022-07-09T06:32:40;4.30;;;1.85;;
70406;SDS011;57821;52.202;0.154;2022-07-09T06:35:07;4.32;;;1.95;;
70406;SDS011;57821;52.202;0.154;2022-07-09T06:37:34;4.55;;;1.98;;
70406;SDS011;57821;52.202;0.154;2022-07-09T06:40:00;6.18;;;2.20;;
70406;SDS011;57821;52.202;0.154;2022-07-09T06:42:27;5.55;;;1.95;;
70406;SDS011;57821;52.202;0.154;2022-07-09T06:45:07;5.38;;;1.90;;
70406;SDS011;57821;52.202;0.154;2022-07-09T06:47:34;3.72;;;1.88;;
70406;SDS011;57821;52.202;0.154;2022-07-09T06:50:09;5.32;;;1.65;;
70406;SDS011;57821;52.202;0.154;2022-07-09T06:52:36;4.20;;;1.70;;
70406;SDS011;57821;52.202;0.154;2022-07-09T06:55:02;5.72;;;1.42;;
70406;SDS011;57821;52.202;0.154;2022-07-09T06:57:29;4.57;;;1.90;;
70406;SDS011;57821;52.202;0.154;2022-07-09T06:59:56;3.90;;;1.58;;
70406;SDS011;57821;52.202;0.154;2022-07-09T07:02:22;4.15;;;1.70;;
70406;SDS011;57821;52.202;0.154;2022-07-09T07:04:49;5.55;;;1.58;;
70406;SDS011;57821;52.202;0.154;2022-07-09T07:07:16;3.85;;;1.50;;
70406;SDS011;57821;52.202;0.154;2022-07-09T07:09:42;4.03;;;1.50;;
70406;SDS011;57821;52.202;0.154;2022-07-09T07:12:09;4.18;;;1.60;;
70406;SDS011;57821;52.202;0.154;2022-07-09T07:14:35;4.38;;;1.60;;
70406;SDS011;57821;52.202;0.154;2022-07-09T07:17:02;3.90;;;1.40;;
70406;SDS011;57821;52.202;0.154;2022-07-09T07:19:29;4.53;;;1.38;;
70406;SDS011;57821;52.202;0.154;2022-07-09T07:21:55;3.30;;;1.10;;
70406;SDS011;57821;52.202;0.154;2022-07-09T07:24:22;4.07;;;1.25;;
70406;SDS011;57821;52.202;0.154;2022-07-09T07:26:51;4.22;;;1.40;;
70406;SDS011;57821;52.202;0.154;2022-07-09T07:29:18;4.78;;;1.70;;
70406;SDS011;57821;52.202;0.154;2022-07-09T07:31:44;4.18;;;1.50;;
70406;SDS011;57821;52.202;0.154;2022-07-09T07:34:11;6.22;;;1.52;;
70406;SDS011;57821;52.202;0.154;2022-07-09T07:36:38;5.20;;;1.90;;
70406;SDS011;57821;52.202;0.154;2022-07-09T07:39:04;4.85;;;2.20;;
70406;SDS011;57821;52.202;0.154;2022-07-09T07:41:31;4.18;;;1.80;;
70406;SDS011;57821;52.202;0.154;2022-07-09T07:43:57;4.13;;;1.80;;
70406;SDS011;57821;52.202;0.154;2022-07-09T07:46:24;4.05;;;1.83;;
70406;SDS011;57821;52.202;0.154;2022-07-09T07:48:51;4.03;;;1.42;;
70406;SDS011;57821;52.202;0.154;2022-07-09T07:51:17;3.50;;;1.23;;
70406;SDS011;57821;52.202;0.154;2022-07-09T07:53:44;3.70;;;1.10;;
70406;SDS011;57821;52.202;0.154;2022-07-09T07:56:10;5.45;;;1.50;;
70406;SDS011;57821;52.202;0.154;2022-07-09T07:58:37;5.65;;;1.10;;
70406;SDS011;57821;52.202;0.154;2022-07-09T08:01:04;4.97;;;1.00;;
70406;SDS011;57821;52.202;0.154;2022-07-09T08:03:31;3.88;;;1.20;;
70406;SDS011;57821;52.202;0.154;2022-07-09T08:05:59;4.47;;;1.40;;
70406;SDS011;57821;52.202;0.154;2022-07-09T08:08:26;3.17;;;0.80;;
70406;SDS011;57821;52.202;0.154;2022-07-09T08:10:52;2.60;;;0.70;;
70406;SDS011;57821;52.202;0.154;2022-07-09T08:13:19;2.95;;;0.95;;
70406;SDS011;57821;52.202;0.154;2022-07-09T08:15:45;3.13;;;0.70;;
70406;SDS011;57821;52.202;0.154;2022-07-09T08:18:12;2.65;;;0.63;;
70406;SDS011;57821;52.202;0.154;2022-07-09T08:20:39;3.10;;;0.70;;
70406;SDS011;57821;52.202;0.154;2022-07-09T08:23:07;2.22;;;0.60;;
70406;SDS011;57821;52.202;0.154;2022-07-09T08:25:34;3.03;;;0.70;;
70406;SDS011;57821;52.202;0.154;2022-07-09T08:28:02;2.85;;;0.80;;
70406;SDS011;57821;52.202;0.154;2022-07-09T08:30:29;2.30;;;0.70;;
70406;SDS011;57821;52.202;0.154;2022-07-09T08:32:55;3.60;;;0.77;;
70406;SDS011;57821;52.202;0.154;2022-07-09T08:35:22;3.05;;;0.52;;
70406;SDS011;57821;52.202;0.154;2022-07-09T08:37:49;3.10;;;0.88;;
70406;SDS011;57821;52.202;0.154;2022-07-09T08:40:15;2.70;;;0.60;;
70406;SDS011;57821;52.202;0.154;2022-07-09T08:42:42;1.63;;;0.50;;
70406;SDS011;57821;52.202;0.154;2022-07-09T08:45:10;2.78;;;0.85;;
70406;SDS011;57821;52.202;0.154;2022-07-09T08:47:38;2.90;;;0.85;;
70406;SDS011;57821;52.202;0.154;2022-07-09T08:50:06;2.58;;;0.70;;
70406;SDS011;57821;52.202;0.154;2022-07-09T08:52:34;2.67;;;0.90;;
70406;SDS011;57821;52.202;0.154;2022-07-09T08:55:02;2.85;;;0.82;;
70406;SDS011;57821;52.202;0.154;2022-07-09T08:57:29;2.22;;;0.75;;
70406;SDS011;57821;52.202;0.154;2022-07-09T08:59:55;3.78;;;0.93;;
70406;SDS011;57821;52.202;0.154;2022-07-09T09:02:22;2.78;;;0.90;;
70406;SDS011;57821;52.202;0.154;2022-07-09T09:04:49;4.55;;;0.80;;
70406;SDS011;57821;52.202;0.154;2022-07-09T09:07:18;3.10;;;0.90;;
70406;SDS011;57821;52.202;0.154;2022-07-09T09:09:45;3.25;;;0.98;;
70406;SDS011;57821;52.202;0.154;2022-07-09T09:12:12;4.82;;;0.95;;
70406;SDS011;57821;52.202;0.154;2022-07-09T09:14:39;3.47;;;1.00;;
70406;SDS011;57821;52.202;0.154;2022-07-09T09:17:14;3.80;;;1.00;;
70406;SDS011;57821;52.202;0.154;2022-07-09T09:19:41;4.03;;;1.65;;
70406;SDS011;57821;52.202;0.154;2022-07-09T09:22:07;2.60;;;0.80;;
70406;SDS011;57821;52.202;0.154;2022-07-09T09:24:34;2.58;;;0.70;;
70406;SDS011;57821;52.202;0.154;2022-07-09T09:27:01;2.67;;;0.70;;
70406;SDS011;57821;52.202;0.154;2022-07-09T09:29:28;2.50;;;0.68;;
70406;SDS011;57821;52.202;0.154;2022-07-09T09:31:55;3.60;;;0.60;;
70406;SDS011;57821;52.202;0.154;2022-07-09T09:34:22;5.38;;;0.82;;
70406;SDS011;57821;52.202;0.154;2022-07-09T09:36:50;2.42;;;0.70;;
70406;SDS011;57821;52.202;0.154;2022-07-09T09:39:22;5.35;;;0.70;;
70406;SDS011;57821;52.202;0.154;2022-07-09T09:42:10;5.18;;;0.80;;
70406;SDS011;57821;52.202;0.154;2022-07-09T09:44:38;14.73;;;1.30;;
70406;SDS011;57821;52.202;0.154;2022-07-09T09:47:06;3.28;;;0.65;;
70406;SDS011;57821;52.202;0.154;2022-07-09T09:49:34;2.25;;;0.63;;
70406;SDS011;57821;52.202;0.154;2022-07-09T09:52:03;3.00;;;0.63;;
70406;SDS011;57821;52.202;0.154;2022-07-09T09:54:32;4.15;;;0.60;;
70406;SDS011;57821;52.202;0.154;2022-07-09T09:57:02;2.17;;;0.60;;
70406;SDS011;57821;52.202;0.154;2022-07-09T09:59:41;3.28;;;0.63;;
70406;SDS011;57821;52.202;0.154;2022-07-09T10:02:09;5.13;;;0.70;;
70406;SDS011;57821;52.202;0.154;2022-07-09T10:04:36;2.85;;;0.60;;
70406;SDS011;57821;52.202;0.154;2022-07-09T10:07:11;1.90;;;0.57;;
70406;SDS011;57821;52.202;0.154;2022-07-09T10:09:39;3.20;;;0.50;;
70406;SDS011;57821;52.202;0.154;2022-07-09T10:12:06;3.00;;;0.70;;
70406;SDS011;57821;52.202;0.154;2022-07-09T10:14:34;2.75;;;0.50;;
70406;SDS011;57821;52.202;0.154;2022-07-09T10:19:36;1.38;;;0.40;;
70406;SDS011;57821;52.202;0.154;2022-07-09T10:22:03;2.55;;;0.68;;
70406;SDS011;57821;52.202;0.154;2022-07-09T10:24:30;6.47;;;0.60;;
70406;SDS011;57821;52.202;0.154;2022-07-09T10:27:02;1.83;;;0.40;;
70406;SDS011;57821;52.202;0.154;2022-07-09T10:29:30;10.20;;;2.15;;
70406;SDS011;57821;52.202;0.154;2022-07-09T10:31:57;10.70;;;1.00;;
70406;SDS011;57821;52.202;0.154;2022-07-09T10:39:41;3.80;;;1.00;;
70406;SDS011;57821;52.202;0.154;2022-07-09T10:42:19;1.73;;;0.50;;
70406;SDS011;57821;52.202;0.154;2022-07-09T10:44:47;5.43;;;2.85;;
70406;SDS011;57821;52.202;0.154;2022-07-09T10:47:14;2.20;;;0.60;;
70406;SDS011;57821;52.202;0.154;2022-07-09T10:49:40;3.35;;;1.30;;
70406;SDS011;57821;52.202;0.154;2022-07-09T10:52:08;3.53;;;0.50;;
70406;SDS011;57821;52.202;0.154;2022-07-09T10:54:44;2.05;;;0.63;;
70406;SDS011;57821;52.202;0.154;2022-07-09T10:57:14;4.57;;;0.60;;
70406;SDS011;57821;52.202;0.154;2022-07-09T10:59:44;3.25;;;0.70;;
70406;SDS011;57821;52.202;0.154;2022-07-09T11:02:21;3.92;;;0.70;;
70406;SDS011;57821;52.202;0.154;2022-07-09T11:04:49;3.00;;;0.60;;
70406;SDS011;57821;52.202;0.154;2022-07-09T11:07:21;2.65;;;0.70;;
70406;SDS011;57821;52.202;0.154;2022-07-09T11:09:52;3.60;;;0.75;;
70406;SDS011;57821;52.202;0.154;2022-07-09T11:12:19;2.97;;;0.50;;
70406;SDS011;57821;52.202;0.154;2022-07-09T11:14:49;2.67;;;0.43;;
70406;SDS011;57821;52.202;0.154;2022-07-09T11:17:17;1.70;;;0.50;;
70406;SDS011;57821;52.202;0.154;2022-07-09T11:19:45;6.78;;;0.80;;
70406;SDS011;57821;52.202;0.154;2022-07-09T11:22:12;1.95;;;0.47;;
70406;SDS011;57821;52.202;0.154;2022-07-09T11:24:39;2.85;;;0.55;;
70406;SDS011;57821;52.202;0.154;2022-07-09T11:27:06;1.90;;;0.50;;
70406;SDS011;57821;52.202;0.154;2022-07-09T11:29:34;1.63;;;0.50;;
70406;SDS011;57821;52.202;0.154;2022-07-09T11:32:02;1.67;;;0.50;;
70406;SDS011;57821;52.202;0.154;2022-07-09T11:34:30;1.88;;;0.40;;
70406;SDS011;57821;52.202;0.154;2022-07-09T11:36:57;2.95;;;0.50;;
70406;SDS011;57821;52.202;0.154;2022-07-09T11:39:28;3.45;;;0.55;;
70406;SDS011;57821;52.202;0.154;2022-07-09T11:41:56;2.15;;;0.50;;
70406;SDS011;57821;52.202;0.154;2022-07-09T11:44:24;2.33;;;0.50;;
70406;SDS011;57821;52.202;0.154;2022-07-09T11:47:01;2.83;;;0.70;;
70406;SDS011;57821;52.202;0.154;2022-07-09T11:49:35;2.20;;;0.57;;
70406;SDS011;57821;52.202;0.154;2022-07-09T11:52:18;1.95;;;0.50;;
70406;SDS011;57821;52.202;0.154;2022-07-09T11:54:57;1.73;;;0.38;;
70406;SDS011;57821;52.202;0.154;2022-07-09T11:57:29;2.40;;;0.50;;
70406;SDS011;57821;52.202;0.154;2022-07-09T11:59:56;2.20;;;0.60;;
70406;SDS011;57821;52.202;0.154;2022-07-09T12:02:29;4.20;;;0.60;;
70406;SDS011;57821;52.202;0.154;2022-07-09T12:04:56;3.35;;;0.60;;
70406;SDS011;57821;52.202;0.154;2022-07-09T12:07:23;2.45;;;0.50;;
70406;SDS011;57821;52.202;0.154;2022-07-09T12:10:00;3.42;;;0.63;;
70406;SDS011;57821;52.202;0.154;2022-07-09T12:12:31;1.83;;;0.40;;
70406;SDS011;57821;52.202;0.154;2022-07-09T12:15:00;1.67;;;0.50;;
70406;SDS011;57821;52.202;0.154;2022-07-09T12:17:34;2.45;;;0.60;;
70406;SDS011;57821;52.202;0.154;2022-07-09T12:20:00;3.03;;;0.50;;
70406;SDS011;57821;52.202;0.154;2022-07-09T12:22:27;2.17;;;0.60;;
70406;SDS011;57821;52.202;0.154;2022-07-09T12:24:53;1.80;;;0.40;;
70406;SDS011;57821;52.202;0.154;2022-07-09T12:27:20;4.50;;;0.70;;
70406;SDS011;57821;52.202;0.154;2022-07-09T12:29:49;4.95;;;0.57;;
70406;SDS011;57821;52.202;0.154;2022-07-09T12:32:16;2.45;;;0.68;;
70406;SDS011;57821;52.202;0.154;2022-07-09T12:34:42;2.10;;;0.43;;
70406;SDS011;57821;52.202;0.154;2022-07-09T12:37:09;3.15;;;0.47;;
70406;SDS011;57821;52.202;0.154;2022-07-09T12:39:35;2.90;;;0.60;;
70406;SDS011;57821;52.202;0.154;2022-07-09T12:42:02;2.70;;;0.40;;
70406;SDS011;57821;52.202;0.154;2022-07-09T12:44:29;1.65;;;0.38;;
70406;SDS011;57821;52.202;0.154;2022-07-09T12:46:56;3.97;;;0.55;;
70406;SDS011;57821;52.202;0.154;2022-07-09T12:49:22;4.00;;;0.50;;
70406;SDS011;57821;52.202;0.154;2022-07-09T12:51:49;4.00;;;0.40;;
70406;SDS011;57821;52.202;0.154;2022-07-09T12:54:16;2.17;;;0.50;;
70406;SDS011;57821;52.202;0.154;2022-07-09T12:56:42;1.45;;;0.38;;
70406;SDS011;57821;52.202;0.154;2022-07-09T12:59:29;1.63;;;0.40;;
70406;SDS011;57821;52.202;0.154;2022-07-09T13:01:56;1.63;;;0.40;;
70406;SDS011;57821;52.202;0.154;2022-07-09T13:04:23;2.13;;;0.57;;
70406;SDS011;57821;52.202;0.154;2022-07-09T13:06:50;2.00;;;0.50;;
70406;SDS011;57821;52.202;0.154;2022-07-09T13:09:17;2.70;;;0.50;;
70406;SDS011;57821;52.202;0.154;2022-07-09T13:11:43;1.30;;;0.40;;
70406;SDS011;57821;52.202;0.154;2022-07-09T13:14:11;1.65;;;0.32;;
70406;SDS011;57821;52.202;0.154;2022-07-09T13:16:38;1.40;;;0.32;;
70406;SDS011;57821;52.202;0.154;2022-07-09T13:19:05;2.00;;;0.47;;
70406;SDS011;57821;52.202;0.154;2022-07-09T13:21:32;2.03;;;0.40;;
70406;SDS011;57821;52.202;0.154;2022-07-09T13:23:58;3.22;;;0.47;;
70406;SDS011;57821;52.202;0.154;2022-07-09T13:26:25;3.83;;;0.40;;
70406;SDS011;57821;52.202;0.154;2022-07-09T13:28:52;4.10;;;0.63;;
70406;SDS011;57821;52.202;0.154;2022-07-09T13:31:19;3.72;;;0.50;;
70406;SDS011;57821;52.202;0.154;2022-07-09T13:33:46;1.95;;;0.32;;
70406;SDS011;57821;52.202;0.154;2022-07-09T13:36:12;3.83;;;0.50;;
70406;SDS011;57821;52.202;0.154;2022-07-09T13:38:39;2.17;;;0.55;;
70406;SDS011;57821;52.202;0.154;2022-07-09T13:41:05;4.65;;;0.40;;
70406;SDS011;57821;52.202;0.154;2022-07-09T13:43:32;1.73;;;0.35;;
70406;SDS011;57821;52.202;0.154;2022-07-09T13:46:01;1.35;;;0.32;;
70406;SDS011;57821;52.202;0.154;2022-07-09T13:48:29;2.40;;;0.40;;
70406;SDS011;57821;52.202;0.154;2022-07-09T13:50:55;2.72;;;0.50;;
70406;SDS011;57821;52.202;0.154;2022-07-09T13:53:22;1.67;;;0.43;;
70406;SDS011;57821;52.202;0.154;2022-07-09T13:55:48;3.80;;;0.55;;
70406;SDS011;57821;52.202;0.154;2022-07-09T13:58:15;1.75;;;0.32;;
70406;SDS011;57821;52.202;0.154;2022-07-09T14:00:41;1.92;;;0.35;;
70406;SDS011;57821;52.202;0.154;2022-07-09T14:03:08;2.42;;;0.40;;
70406;SDS011;57821;52.202;0.154;2022-07-09T14:05:35;1.75;;;0.38;;
70406;SDS011;57821;52.202;0.154;2022-07-09T14:08:02;1.48;;;0.35;;
70406;SDS011;57821;52.202;0.154;2022-07-09T14:10:29;2.65;;;0.50;;
70406;SDS011;57821;52.202;0.154;2022-07-09T14:12:56;2.30;;;0.45;;
70406;SDS011;57821;52.202;0.154;2022-07-09T14:15:23;1.83;;;0.45;;
70406;SDS011;57821;52.202;0.154;2022-07-09T14:17:49;1.40;;;0.40;;
70406;SDS011;57821;52.202;0.154;2022-07-09T14:20:16;1.90;;;0.40;;
70406;SDS011;57821;52.202;0.154;2022-07-09T14:22:42;3.20;;;0.70;;
70406;SDS011;57821;52.202;0.154;2022-07-09T14:25:09;1.35;;;0.40;;
70406;SDS011;57821;52.202;0.154;2022-07-09T14:27:36;2.03;;;0.50;;
70406;SDS011;57821;52.202;0.154;2022-07-09T14:30:05;1.60;;;0.47;;
70406;SDS011;57821;52.202;0.154;2022-07-09T14:32:32;0.93;;;0.22;;
70406;SDS011;57821;52.202;0.154;2022-07-09T14:34:58;1.13;;;0.40;;
70406;SDS011;57821;52.202;0.154;2022-07-09T14:37:30;4.63;;;0.50;;
70406;SDS011;57821;52.202;0.154;2022-07-09T14:39:57;1.40;;;0.47;;
70406;SDS011;57821;52.202;0.154;2022-07-09T14:42:23;3.38;;;0.40;;
70406;SDS011;57821;52.202;0.154;2022-07-09T14:44:50;2.58;;;0.30;;
70406;SDS011;57821;52.202;0.154;2022-07-09T14:47:17;0.98;;;0.30;;
70406;SDS011;57821;52.202;0.154;2022-07-09T14:49:46;1.95;;;0.40;;
70406;SDS011;57821;52.202;0.154;2022-07-09T14:52:16;1.73;;;0.50;;
70406;SDS011;57821;52.202;0.154;2022-07-09T14:57:10;1.55;;;0.40;;
70406;SDS011;57821;52.202;0.154;2022-07-09T14:59:37;3.78;;;0.55;;